Decoded Metar for KSTJ (ST. JOSEPH in MO, USA) (IATA:STJ) | Meteo·Mobile Aviation Weather
aviador You're here:

KSTJ Decoded Metar

ST. JOSEPH in MO, USA
Report Time2018-12-13 03:53:00
UTC Time2018-12-13 04:06:17
Flight Rules vfr VFR
WindCalm
Visibility9999 m
Phenomena:N/A
Clouds:N/A
CeilingNone
Temp-2°C (ISA -15)
Dew Point-2°C (100% RH)
AAT-4.3°C
QNH1010 hPa
Density Alt-899 ft
Elevation810 ft
Report Wrong Elevation
Raw Report
KSTJ 130353Z AUTO 00000KT 10SM CLR M02/M02 A2982 RMK AO2 SLP105
T10171022=

Extra information for KSTJ:More info

Metar Taf Metar & Taf Last 4 Metars F.Rules Stats Wind Profile Meteogram Temp Stats Airport Information Weather charts Add Link Nearby VenuesMetar ALERT Operation Metar Decoded Social comments

AIRNAV info for KSTJ